^^
Station Historical Data
Daily Summary for May 25, 2017 Units:  Both    English   Metric
« Previous Day
Next Day »
Daily Weekly Monthly Yearly Custom
  High: Low: Average:
Temperature: 76.5 °F /  24.7 °C 47.1 °F /  8.4 °C 60.4 °F /  15.8 °C
Dew Point: 44.6 °F /  7 °C 35.8 °F /  2.1 °C 38.8 °F /  3.8 °C
Humidity: 71% 26% 48%
Wind Speed: 6.9mph /  11.1km/h - 0.8mph /  1.3km/h
Wind Gust: 11.0mph /  17.7km/h - -
Wind- - South
Pressure: 30.31 in /  1026.3 hPa 30.16 in /  1021.2 hPa -
Precipitation: 0.00 in /  0 mm    
Historical Graphs
 
 
Tabular Data for May 25, 2017
Time Temperature Dew Point Pressure Wind Wind Speed Wind Gust Humidity Rainfall Rate (Hourly) solar Conditions
00:01 50.9 °F /  10.5 °C 37.6 °F /  3.1 °C 30.29in /  1025.6hPa Calm   1.0mph /  1.6km/h 60% 0.00in /  0mm 0.0 W/m2
00:07 50.7 °F /  10.4 °C 37.4 °F /  3 °C 30.29in /  1025.6hPa ESE 0.9mph /  1.4km/h 2.0mph /  3.2km/h 60% 0.00in /  0mm 0.0 W/m2
00:13 50.5 °F /  10.3 °C 37.2 °F /  2.9 °C 30.29in /  1025.6hPa Calm   2.0mph /  3.2km/h 60% 0.00in /  0mm 0.0 W/m2
00:20 50.5 °F /  10.3 °C 37.2 °F /  2.9 °C 30.29in /  1025.6hPa SE 0.9mph /  1.4km/h 2.0mph /  3.2km/h 60% 0.00in /  0mm 0.0 W/m2
00:26 50.5 °F /  10.3 °C 37.2 °F /  2.9 °C 30.29in /  1025.6hPa Calm   1.0mph /  1.6km/h 60% 0.00in /  0mm 0.0 W/m2
00:32 50.5 °F /  10.3 °C 37.6 °F /  3.1 °C 30.29in /  1025.6hPa Calm   4.0mph /  6.4km/h 61% 0.00in /  0mm 0.0 W/m2
00:38 50.4 °F /  10.2 °C 37.4 °F /  3 °C 30.29in /  1025.6hPa SE 2.0mph /  3.2km/h 3.0mph /  4.8km/h 61% 0.00in /  0mm 0.0 W/m2
00:44 50.4 °F /  10.2 °C 37.4 °F /  3 °C 30.29in /  1025.6hPa SE 2.0mph /  3.2km/h 5.0mph /  8km/h 61% 0.00in /  0mm 0.0 W/m2
00:50 50.4 °F /  10.2 °C 37.4 °F /  3 °C 30.29in /  1025.6hPa Calm     61% 0.00in /  0mm 0.0 W/m2
00:56 50.4 °F /  10.2 °C 37.4 °F /  3 °C 30.28in /  1025.3hPa ENE 2.0mph /  3.2km/h 3.0mph /  4.8km/h 61% 0.00in /  0mm 0.0 W/m2
01:02 50.2 °F /  10.1 °C 37.2 °F /  2.9 °C 30.28in /  1025.3hPa SE 2.0mph /  3.2km/h 6.0mph /  9.7km/h 61% 0.00in /  0mm 0.0 W/m2
01:08 50.0 °F /  10 °C 37.6 °F /  3.1 °C 30.28in /  1025.3hPa Calm   1.0mph /  1.6km/h 62% 0.00in /  0mm 0.0 W/m2
01:15 50.0 °F /  10 °C 37.6 °F /  3.1 °C 30.28in /  1025.3hPa Calm   2.0mph /  3.2km/h 62% 0.00in /  0mm 0.0 W/m2
01:21 50.0 °F /  10 °C 37.6 °F /  3.1 °C 30.28in /  1025.3hPa NE 0.9mph /  1.4km/h 4.0mph /  6.4km/h 62% 0.00in /  0mm 0.0 W/m2
01:27 50.2 °F /  10.1 °C 37.6 °F /  3.1 °C 30.28in /  1025.3hPa Calm   3.0mph /  4.8km/h 62% 0.00in /  0mm 0.0 W/m2
01:33 50.2 °F /  10.1 °C 37.2 °F /  2.9 °C 30.28in /  1025.3hPa NE 2.0mph /  3.2km/h 4.0mph /  6.4km/h 61% 0.00in /  0mm 0.0 W/m2
01:39 50.2 °F /  10.1 °C 37.2 °F /  2.9 °C 30.28in /  1025.3hPa East 0.9mph /  1.4km/h 3.0mph /  4.8km/h 61% 0.00in /  0mm 0.0 W/m2
01:45 50.2 °F /  10.1 °C 37.2 °F /  2.9 °C 30.28in /  1025.3hPa ENE 0.9mph /  1.4km/h 3.0mph /  4.8km/h 61% 0.00in /  0mm 0.0 W/m2
01:51 50.2 °F /  10.1 °C 37.2 °F /  2.9 °C 30.28in /  1025.3hPa ENE 0.9mph /  1.4km/h 4.0mph /  6.4km/h 61% 0.00in /  0mm 0.0 W/m2
01:58 50.2 °F /  10.1 °C 37.2 °F /  2.9 °C 30.28in /  1025.3hPa ENE 0.9mph /  1.4km/h 3.0mph /  4.8km/h 61% 0.00in /  0mm 0.0 W/m2
02:04 50.2 °F /  10.1 °C 37.2 °F /  2.9 °C 30.27in /  1024.9hPa East 0.9mph /  1.4km/h 3.0mph /  4.8km/h 61% 0.00in /  0mm 0.0 W/m2
02:10 50.2 °F /  10.1 °C 37.6 °F /  3.1 °C 30.27in /  1024.9hPa Calm   1.0mph /  1.6km/h 62% 0.00in /  0mm 0.0 W/m2
02:16 50.0 °F /  10 °C 37.6 °F /  3.1 °C 30.27in /  1024.9hPa SSE 0.9mph /  1.4km/h 2.0mph /  3.2km/h 62% 0.00in /  0mm 0.0 W/m2
02:28 49.8 °F /  9.9 °C 37.4 °F /  3 °C 30.27in /  1024.9hPa Calm   1.0mph /  1.6km/h 62% 0.00in /  0mm 0.0 W/m2
02:34 49.6 °F /  9.8 °C 37.2 °F /  2.9 °C 30.27in /  1024.9hPa Calm   1.0mph /  1.6km/h 62% 0.00in /  0mm 0.0 W/m2
02:40 49.5 °F /  9.7 °C 37.4 °F /  3 °C 30.27in /  1024.9hPa Calm     63% 0.00in /  0mm 0.0 W/m2
02:47 49.3 °F /  9.6 °C 37.2 °F /  2.9 °C 30.27in /  1024.9hPa Calm   1.0mph /  1.6km/h 63% 0.00in /  0mm 0.0 W/m2
02:53 48.9 °F /  9.4 °C 37.2 °F /  2.9 °C 30.27in /  1024.9hPa Calm     64% 0.00in /  0mm 0.0 W/m2
02:59 48.7 °F /  9.3 °C 37.0 °F /  2.8 °C 30.27in /  1024.9hPa Calm   1.0mph /  1.6km/h 64% 0.00in /  0mm 0.0 W/m2
03:05 48.6 °F /  9.2 °C 37.4 °F /  3 °C 30.27in /  1024.9hPa Calm     65% 0.00in /  0mm 0.0 W/m2
03:11 48.4 °F /  9.1 °C 37.2 °F /  2.9 °C 30.26in /  1024.6hPa Calm     65% 0.00in /  0mm 0.0 W/m2
03:17 48.2 °F /  9 °C 37.4 °F /  3 °C 30.26in /  1024.6hPa Calm   1.0mph /  1.6km/h 66% 0.00in /  0mm 0.0 W/m2
03:23 48.0 °F /  8.9 °C 37.2 °F /  2.9 °C 30.26in /  1024.6hPa Calm   1.0mph /  1.6km/h 66% 0.00in /  0mm 0.0 W/m2
03:30 48.0 °F /  8.9 °C 37.2 °F /  2.9 °C 30.26in /  1024.6hPa ESE 0.9mph /  1.4km/h 2.0mph /  3.2km/h 66% 0.00in /  0mm 0.0 W/m2
03:36 48.0 °F /  8.9 °C 37.2 °F /  2.9 °C 30.26in /  1024.6hPa Calm   2.0mph /  3.2km/h 66% 0.00in /  0mm 0.0 W/m2
03:42 48.0 °F /  8.9 °C 37.2 °F /  2.9 °C 30.26in /  1024.6hPa Calm     66% 0.00in /  0mm 0.0 W/m2
03:48 48.0 °F /  8.9 °C 37.6 °F /  3.1 °C 30.26in /  1024.6hPa Calm     67% 0.00in /  0mm 0.0 W/m2
03:54 48.0 °F /  8.9 °C 37.2 °F /  2.9 °C 30.26in /  1024.6hPa SE 2.0mph /  3.2km/h 4.0mph /  6.4km/h 66% 0.00in /  0mm 0.0 W/m2
04:00 48.0 °F /  8.9 °C 37.2 °F /  2.9 °C 30.26in /  1024.6hPa ESE 4.0mph /  6.4km/h 4.0mph /  6.4km/h 66% 0.00in /  0mm 0.0 W/m2
04:06 48.4 °F /  9.1 °C 37.6 °F /  3.1 °C 30.26in /  1024.6hPa ESE 2.9mph /  4.7km/h 3.0mph /  4.8km/h 66% 0.00in /  0mm 0.0 W/m2
04:13 48.2 °F /  9 °C 37.4 °F /  3 °C 30.26in /  1024.6hPa Calm   1.0mph /  1.6km/h 66% 0.00in /  0mm 0.0 W/m2
04:17 48.2 °F /  9 °C 37.4 °F /  3 °C 30.26in /  1024.6hPa ESE 4.0mph /  6.4km/h 4.0mph /  6.4km/h 66% 0.00in /  0mm 0.0 W/m2
04:23 48.0 °F /  8.9 °C 37.2 °F /  2.9 °C 30.26in /  1024.6hPa East 2.0mph /  3.2km/h 4.0mph /  6.4km/h 66% 0.00in /  0mm 0.0 W/m2
04:29 48.0 °F /  8.9 °C 37.6 °F /  3.1 °C 30.26in /  1024.6hPa Calm   1.0mph /  1.6km/h 67% 0.00in /  0mm 0.0 W/m2
04:35 47.8 °F /  8.8 °C 37.4 °F /  3 °C 30.26in /  1024.6hPa East 0.9mph /  1.4km/h 1.0mph /  1.6km/h 67% 0.00in /  0mm 0.0 W/m2
04:41 47.8 °F /  8.8 °C 37.4 °F /  3 °C 30.26in /  1024.6hPa SE 4.0mph /  6.4km/h 4.0mph /  6.4km/h 67% 0.00in /  0mm 0.0 W/m2
04:47 47.8 °F /  8.8 °C 37.4 °F /  3 °C 30.26in /  1024.6hPa ENE 0.9mph /  1.4km/h 3.0mph /  4.8km/h 67% 0.00in /  0mm 0.0 W/m2
04:54 47.7 °F /  8.7 °C 37.2 °F /  2.9 °C 30.26in /  1024.6hPa Calm     67% 0.00in /  0mm 0.0 W/m2
05:00 47.7 °F /  8.7 °C 37.6 °F /  3.1 °C 30.26in /  1024.6hPa Calm   2.0mph /  3.2km/h 68% 0.00in /  0mm 0.0 W/m2
05:06 47.7 °F /  8.7 °C 37.6 °F /  3.1 °C 30.26in /  1024.6hPa Calm   1.0mph /  1.6km/h 68% 0.00in /  0mm 0.0 W/m2
05:12 47.7 °F /  8.7 °C 37.6 °F /  3.1 °C 30.27in /  1024.9hPa Calm     68% 0.00in /  0mm 0.0 W/m2
05:18 47.7 °F /  8.7 °C 37.6 °F /  3.1 °C 30.27in /  1024.9hPa ESE 0.9mph /  1.4km/h 2.0mph /  3.2km/h 68% 0.00in /  0mm 0.0 W/m2
05:24 47.5 °F /  8.6 °C 37.8 °F /  3.2 °C 30.27in /  1024.9hPa Calm     69% 0.00in /  0mm 0.0 W/m2
05:31 47.5 °F /  8.6 °C 37.8 °F /  3.2 °C 30.27in /  1024.9hPa ESE 0.9mph /  1.4km/h 3.0mph /  4.8km/h 69% 0.00in /  0mm 0.0 W/m2
05:37 47.1 °F /  8.4 °C 37.4 °F /  3 °C 30.27in /  1024.9hPa Calm   2.0mph /  3.2km/h 69% 0.00in /  0mm 0.0 W/m2
05:43 47.1 °F /  8.4 °C 37.4 °F /  3 °C 30.27in /  1024.9hPa SE 0.9mph /  1.4km/h 2.0mph /  3.2km/h 69% 0.00in /  0mm 0.0 W/m2
05:49 47.1 °F /  8.4 °C 37.8 °F /  3.2 °C 30.27in /  1024.9hPa Calm   1.0mph /  1.6km/h 70% 0.00in /  0mm 0.0 W/m2
05:55 47.1 °F /  8.4 °C 37.8 °F /  3.2 °C 30.28in /  1025.3hPa Calm   3.0mph /  4.8km/h 70% 0.00in /  0mm 0.0 W/m2
06:01 47.3 °F /  8.5 °C 37.9 °F /  3.3 °C 30.28in /  1025.3hPa Calm   1.0mph /  1.6km/h 70% 0.00in /  0mm 0.0 W/m2
06:07 47.5 °F /  8.6 °C 38.1 °F /  3.4 °C 30.28in /  1025.3hPa Calm   3.0mph /  4.8km/h 70% 0.00in /  0mm 0.0 W/m2
06:14 47.5 °F /  8.6 °C 38.1 °F /  3.4 °C 30.28in /  1025.3hPa Calm   2.0mph /  3.2km/h 70% 0.00in /  0mm 0.0 W/m2
06:20 47.5 °F /  8.6 °C 38.1 °F /  3.4 °C 30.28in /  1025.3hPa Calm   1.0mph /  1.6km/h 70% 0.00in /  0mm 0.0 W/m2
06:26 47.5 °F /  8.6 °C 38.1 °F /  3.4 °C 30.29in /  1025.6hPa East 2.9mph /  4.7km/h 3.0mph /  4.8km/h 70% 0.00in /  0mm 5.0 W/m2
06:32 47.5 °F /  8.6 °C 38.1 °F /  3.4 °C 30.28in /  1025.3hPa Calm   3.0mph /  4.8km/h 70% 0.00in /  0mm 9.0 W/m2
06:38 47.5 °F /  8.6 °C 38.1 °F /  3.4 °C 30.29in /  1025.6hPa Calm     70% 0.00in /  0mm 11.0 W/m2
06:44 47.5 °F /  8.6 °C 38.1 °F /  3.4 °C 30.29in /  1025.6hPa Calm   3.0mph /  4.8km/h 70% 0.00in /  0mm 14.0 W/m2
06:50 47.5 °F /  8.6 °C 38.5 °F /  3.6 °C 30.29in /  1025.6hPa East 0.9mph /  1.4km/h 2.0mph /  3.2km/h 71% 0.00in /  0mm 16.0 W/m2
06:57 47.7 °F /  8.7 °C 38.7 °F /  3.7 °C 30.29in /  1025.6hPa East 2.0mph /  3.2km/h 3.0mph /  4.8km/h 71% 0.00in /  0mm 18.0 W/m2
07:05 47.7 °F /  8.7 °C 38.7 °F /  3.7 °C 30.29in /  1025.6hPa Calm     71% 0.00in /  0mm 19.0 W/m2
07:11 48.0 °F /  8.9 °C 39.0 °F /  3.9 °C 30.29in /  1025.6hPa Calm   3.0mph /  4.8km/h 71% 0.00in /  0mm 21.0 W/m2
07:17 48.6 °F /  9.2 °C 39.6 °F /  4.2 °C 30.30in /  1026hPa Calm   3.0mph /  4.8km/h 71% 0.00in /  0mm 25.0 W/m2
07:23 49.3 °F /  9.6 °C 39.9 °F /  4.4 °C 30.30in /  1026hPa Calm   2.0mph /  3.2km/h 70% 0.00in /  0mm 26.0 W/m2
07:29 49.8 °F /  9.9 °C 40.1 °F /  4.5 °C 30.30in /  1026hPa SSE 0.9mph /  1.4km/h 1.0mph /  1.6km/h 69% 0.00in /  0mm 28.0 W/m2
07:35 50.5 °F /  10.3 °C 40.5 °F /  4.7 °C 30.31in /  1026.3hPa Calm     68% 0.00in /  0mm 30.0 W/m2
07:41 51.3 °F /  10.7 °C 41.0 °F /  5 °C 30.31in /  1026.3hPa East 2.9mph /  4.7km/h 3.0mph /  4.8km/h 68% 0.00in /  0mm 30.0 W/m2
07:47 52.2 °F /  11.2 °C 41.5 °F /  5.3 °C 30.31in /  1026.3hPa Calm   1.0mph /  1.6km/h 67% 0.00in /  0mm 32.0 W/m2
07:54 53.1 °F /  11.7 °C 41.5 °F /  5.3 °C 30.31in /  1026.3hPa Calm     65% 0.00in /  0mm 33.0 W/m2
08:00 54.3 °F /  12.4 °C 42.1 °F /  5.6 °C 30.30in /  1026hPa Calm     63% 0.00in /  0mm 35.0 W/m2
08:06 55.6 °F /  13.1 °C 43.2 °F /  6.2 °C 30.30in /  1026hPa Calm     63% 0.00in /  0mm 308.0 W/m2
08:12 57.0 °F /  13.9 °C 43.7 °F /  6.5 °C 30.30in /  1026hPa Calm     61% 0.00in /  0mm 339.0 W/m2
08:18 59.2 °F /  15.1 °C 44.4 °F /  6.9 °C 30.30in /  1026hPa Calm     58% 0.00in /  0mm 360.0 W/m2
08:24 60.8 °F /  16 °C 44.6 °F /  7 °C 30.30in /  1026hPa Calm     55% 0.00in /  0mm 380.0 W/m2
08:30 62.6 °F /  17 °C 43.2 °F /  6.2 °C 30.30in /  1026hPa Calm   1.0mph /  1.6km/h 49% 0.00in /  0mm 401.0 W/m2
08:37 64.6 °F /  18.1 °C 41.5 °F /  5.3 °C 30.30in /  1026hPa Calm     43% 0.00in /  0mm 420.0 W/m2
08:43 66.0 °F /  18.9 °C 42.8 °F /  6 °C 30.30in /  1026hPa NE 0.9mph /  1.4km/h 1.0mph /  1.6km/h 43% 0.00in /  0mm 439.0 W/m2
08:49 67.1 °F /  19.5 °C 42.6 °F /  5.9 °C 30.31in /  1026.3hPa Calm     41% 0.00in /  0mm 455.0 W/m2
08:55 67.5 °F /  19.7 °C 41.0 °F /  5 °C 30.31in /  1026.3hPa Calm   1.0mph /  1.6km/h 38% 0.00in /  0mm 473.0 W/m2
09:01 68.4 °F /  20.2 °C 41.7 °F /  5.4 °C 30.31in /  1026.3hPa Calm     38% 0.00in /  0mm 489.0 W/m2
09:07 68.9 °F /  20.5 °C 40.8 °F /  4.9 °C 30.31in /  1026.3hPa Calm   3.0mph /  4.8km/h 36% 0.00in /  0mm 506.0 W/m2
09:13 70.2 °F /  21.2 °C 41.2 °F /  5.1 °C 30.31in /  1026.3hPa NNW 0.9mph /  1.4km/h 3.0mph /  4.8km/h 35% 0.00in /  0mm 524.0 W/m2
09:19 71.1 °F /  21.7 °C 42.1 °F /  5.6 °C 30.31in /  1026.3hPa Calm   1.0mph /  1.6km/h 35% 0.00in /  0mm 538.0 W/m2
09:26 71.8 °F /  22.1 °C 41.9 °F /  5.5 °C 30.31in /  1026.3hPa WNW 2.0mph /  3.2km/h 2.0mph /  3.2km/h 34% 0.00in /  0mm 552.0 W/m2
09:38 72.1 °F /  22.3 °C 41.4 °F /  5.2 °C 30.30in /  1026hPa North 4.0mph /  6.4km/h 4.0mph /  6.4km/h 33% 0.00in /  0mm 580.0 W/m2
09:44 72.3 °F /  22.4 °C 41.5 °F /  5.3 °C 30.30in /  1026hPa Calm   1.0mph /  1.6km/h 33% 0.00in /  0mm 592.0 W/m2
09:50 72.3 °F /  22.4 °C 40.8 °F /  4.9 °C 30.30in /  1026hPa North 2.9mph /  4.7km/h 6.0mph /  9.7km/h 32% 0.00in /  0mm 606.0 W/m2
09:56 72.7 °F /  22.6 °C 41.2 °F /  5.1 °C 30.30in /  1026hPa Calm   3.0mph /  4.8km/h 32% 0.00in /  0mm 617.0 W/m2
10:02 72.7 °F /  22.6 °C 41.9 °F /  5.5 °C 30.30in /  1026hPa Calm   1.0mph /  1.6km/h 33% 0.00in /  0mm 626.0 W/m2
10:09 72.7 °F /  22.6 °C 41.2 °F /  5.1 °C 30.30in /  1026hPa Calm   2.0mph /  3.2km/h 32% 0.00in /  0mm 640.0 W/m2
10:15 73.0 °F /  22.8 °C 40.6 °F /  4.8 °C 30.29in /  1025.6hPa North 0.9mph /  1.4km/h 5.0mph /  8km/h 31% 0.00in /  0mm 650.0 W/m2
10:21 73.0 °F /  22.8 °C 40.6 °F /  4.8 °C 30.29in /  1025.6hPa North 4.0mph /  6.4km/h 8.0mph /  12.9km/h 31% 0.00in /  0mm 656.0 W/m2
10:27 73.2 °F /  22.9 °C 40.8 °F /  4.9 °C 30.29in /  1025.6hPa Calm   3.0mph /  4.8km/h 31% 0.00in /  0mm 666.0 W/m2
10:33 73.2 °F /  22.9 °C 40.8 °F /  4.9 °C 30.29in /  1025.6hPa Calm   5.0mph /  8km/h 31% 0.00in /  0mm 675.0 W/m2
10:39 73.6 °F /  23.1 °C 41.9 °F /  5.5 °C 30.28in /  1025.3hPa NW 6.0mph /  9.7km/h 6.0mph /  9.7km/h 32% 0.00in /  0mm 679.0 W/m2
10:45 73.8 °F /  23.2 °C 41.2 °F /  5.1 °C 30.28in /  1025.3hPa NW 2.9mph /  4.7km/h 5.0mph /  8km/h 31% 0.00in /  0mm 680.0 W/m2
10:51 73.8 °F /  23.2 °C 40.5 °F /  4.7 °C 30.28in /  1025.3hPa NNW 2.9mph /  4.7km/h 8.0mph /  12.9km/h 30% 0.00in /  0mm 693.0 W/m2
10:58 73.8 °F /  23.2 °C 41.2 °F /  5.1 °C 30.27in /  1024.9hPa NNW 2.0mph /  3.2km/h 10.0mph /  16.1km/h 31% 0.00in /  0mm 698.0 W/m2
11:04 73.9 °F /  23.3 °C 40.5 °F /  4.7 °C 30.27in /  1024.9hPa NNE 0.9mph /  1.4km/h 7.0mph /  11.3km/h 30% 0.00in /  0mm 703.0 W/m2
11:10 73.9 °F /  23.3 °C 40.5 °F /  4.7 °C 30.26in /  1024.6hPa NNE 4.9mph /  7.9km/h 8.0mph /  12.9km/h 30% 0.00in /  0mm 708.0 W/m2
11:16 73.9 °F /  23.3 °C 41.4 °F /  5.2 °C 30.26in /  1024.6hPa NNW 2.9mph /  4.7km/h 3.0mph /  4.8km/h 31% 0.00in /  0mm 714.0 W/m2
11:22 74.1 °F /  23.4 °C 40.6 °F /  4.8 °C 30.26in /  1024.6hPa ENE 2.0mph /  3.2km/h 3.0mph /  4.8km/h 30% 0.00in /  0mm 715.0 W/m2
11:28 74.7 °F /  23.7 °C 41.2 °F /  5.1 °C 30.26in /  1024.6hPa NW 6.9mph /  11.1km/h 8.0mph /  12.9km/h 30% 0.00in /  0mm 715.0 W/m2
11:34 74.7 °F /  23.7 °C 41.2 °F /  5.1 °C 30.25in /  1024.3hPa WNW 0.9mph /  1.4km/h 4.0mph /  6.4km/h 30% 0.00in /  0mm 719.0 W/m2
11:40 74.7 °F /  23.7 °C 41.2 °F /  5.1 °C 30.25in /  1024.3hPa Calm   2.0mph /  3.2km/h 30% 0.00in /  0mm 717.0 W/m2
11:46 74.7 °F /  23.7 °C 41.2 °F /  5.1 °C 30.24in /  1023.9hPa Calm   2.0mph /  3.2km/h 30% 0.00in /  0mm 715.0 W/m2
11:48 74.8 °F /  23.8 °C 41.4 °F /  5.2 °C 30.24in /  1023.9hPa Calm   4.0mph /  6.4km/h 30% 0.00in /  0mm 717.0 W/m2
11:55 75.0 °F /  23.9 °C 40.6 °F /  4.8 °C 30.24in /  1023.9hPa NNE 4.0mph /  6.4km/h 7.0mph /  11.3km/h 29% 0.00in /  0mm 715.0 W/m2
12:01 75.2 °F /  24 °C 40.8 °F /  4.9 °C 30.24in /  1023.9hPa NNE 2.0mph /  3.2km/h 7.0mph /  11.3km/h 29% 0.00in /  0mm 714.0 W/m2
12:07 75.4 °F /  24.1 °C 41.0 °F /  5 °C 30.23in /  1023.6hPa West 2.0mph /  3.2km/h 4.0mph /  6.4km/h 29% 0.00in /  0mm 710.0 W/m2
12:13 75.6 °F /  24.2 °C 41.0 °F /  5 °C 30.23in /  1023.6hPa North 2.9mph /  4.7km/h 9.0mph /  14.5km/h 29% 0.00in /  0mm 707.0 W/m2
12:19 75.6 °F /  24.2 °C 41.0 °F /  5 °C 30.22in /  1023.2hPa NNE 0.9mph /  1.4km/h 5.0mph /  8km/h 29% 0.00in /  0mm 705.0 W/m2
12:25 75.7 °F /  24.3 °C 41.2 °F /  5.1 °C 30.22in /  1023.2hPa NNE 2.0mph /  3.2km/h 5.0mph /  8km/h 29% 0.00in /  0mm 698.0 W/m2
12:31 75.7 °F /  24.3 °C 41.2 °F /  5.1 °C 30.21in /  1022.9hPa NW 2.9mph /  4.7km/h 3.0mph /  4.8km/h 29% 0.00in /  0mm 689.0 W/m2
12:38 75.9 °F /  24.4 °C 40.5 °F /  4.7 °C 30.21in /  1022.9hPa NNE 0.9mph /  1.4km/h 4.0mph /  6.4km/h 28% 0.00in /  0mm 687.0 W/m2
12:44 76.3 °F /  24.6 °C 39.9 °F /  4.4 °C 30.21in /  1022.9hPa North 4.0mph /  6.4km/h 8.0mph /  12.9km/h 27% 0.00in /  0mm 686.0 W/m2
12:50 76.3 °F /  24.6 °C 39.9 °F /  4.4 °C 30.20in /  1022.6hPa NNE 4.0mph /  6.4km/h 6.0mph /  9.7km/h 27% 0.00in /  0mm 679.0 W/m2
12:56 76.1 °F /  24.5 °C 39.7 °F /  4.3 °C 30.20in /  1022.6hPa NNW 2.9mph /  4.7km/h 10.0mph /  16.1km/h 27% 0.00in /  0mm 668.0 W/m2
13:02 75.9 °F /  24.4 °C 40.5 °F /  4.7 °C 30.20in /  1022.6hPa Calm   2.0mph /  3.2km/h 28% 0.00in /  0mm 661.0 W/m2
13:08 75.9 °F /  24.4 °C 39.6 °F /  4.2 °C 30.19in /  1022.2hPa Calm   7.0mph /  11.3km/h 27% 0.00in /  0mm 652.0 W/m2
13:14 76.3 °F /  24.6 °C 39.9 °F /  4.4 °C 30.19in /  1022.2hPa Calm   7.0mph /  11.3km/h 27% 0.00in /  0mm 645.0 W/m2
13:20 76.3 °F /  24.6 °C 39.9 °F /  4.4 °C 30.19in /  1022.2hPa North 0.9mph /  1.4km/h 6.0mph /  9.7km/h 27% 0.00in /  0mm 633.0 W/m2
13:27 76.3 °F /  24.6 °C 39.9 °F /  4.4 °C 30.19in /  1022.2hPa NNE 2.0mph /  3.2km/h 6.0mph /  9.7km/h 27% 0.00in /  0mm 622.0 W/m2
13:33 76.3 °F /  24.6 °C 39.9 °F /  4.4 °C 30.19in /  1022.2hPa Calm   3.0mph /  4.8km/h 27% 0.00in /  0mm 612.0 W/m2
13:39 76.3 °F /  24.6 °C 39.9 °F /  4.4 °C 30.19in /  1022.2hPa NNE 6.0mph /  9.7km/h 9.0mph /  14.5km/h 27% 0.00in /  0mm 599.0 W/m2
13:45 76.1 °F /  24.5 °C 39.7 °F /  4.3 °C 30.18in /  1021.9hPa NNW 0.9mph /  1.4km/h 7.0mph /  11.3km/h 27% 0.00in /  0mm 589.0 W/m2
13:51 76.5 °F /  24.7 °C 39.9 °F /  4.4 °C 30.18in /  1021.9hPa NNW 0.9mph /  1.4km/h 6.0mph /  9.7km/h 27% 0.00in /  0mm 573.0 W/m2
13:57 76.5 °F /  24.7 °C 39.9 °F /  4.4 °C 30.18in /  1021.9hPa NNW 2.0mph /  3.2km/h 6.0mph /  9.7km/h 27% 0.00in /  0mm 564.0 W/m2
14:03 76.5 °F /  24.7 °C 39.9 °F /  4.4 °C 30.18in /  1021.9hPa NNW 6.9mph /  11.1km/h 7.0mph /  11.3km/h 27% 0.00in /  0mm 545.0 W/m2
14:10 76.5 °F /  24.7 °C 39.0 °F /  3.9 °C 30.18in /  1021.9hPa NNW 2.9mph /  4.7km/h 7.0mph /  11.3km/h 26% 0.00in /  0mm 531.0 W/m2
14:16 76.3 °F /  24.6 °C 39.9 °F /  4.4 °C 30.17in /  1021.6hPa West 6.9mph /  11.1km/h 9.0mph /  14.5km/h 27% 0.00in /  0mm 517.0 W/m2
14:22 76.3 °F /  24.6 °C 39.9 °F /  4.4 °C 30.17in /  1021.6hPa NNE 2.0mph /  3.2km/h 5.0mph /  8km/h 27% 0.00in /  0mm 503.0 W/m2
14:28 76.3 °F /  24.6 °C 38.8 °F /  3.8 °C 30.18in /  1021.9hPa NNW 0.9mph /  1.4km/h 8.0mph /  12.9km/h 26% 0.00in /  0mm 487.0 W/m2
14:34 76.3 °F /  24.6 °C 38.8 °F /  3.8 °C 30.17in /  1021.6hPa North 2.9mph /  4.7km/h 7.0mph /  11.3km/h 26% 0.00in /  0mm 473.0 W/m2
14:40 75.9 °F /  24.4 °C 38.7 °F /  3.7 °C 30.17in /  1021.6hPa Calm   2.0mph /  3.2km/h 26% 0.00in /  0mm 455.0 W/m2
14:46 75.9 °F /  24.4 °C 38.7 °F /  3.7 °C 30.17in /  1021.6hPa NW 4.0mph /  6.4km/h 9.0mph /  14.5km/h 26% 0.00in /  0mm 439.0 W/m2
14:52 75.9 °F /  24.4 °C 40.5 °F /  4.7 °C 30.17in /  1021.6hPa North 2.9mph /  4.7km/h 3.0mph /  4.8km/h 28% 0.00in /  0mm 420.0 W/m2
15:04 76.1 °F /  24.5 °C 39.7 °F /  4.3 °C 30.17in /  1021.6hPa NW 2.0mph /  3.2km/h 11.0mph /  17.7km/h 27% 0.00in /  0mm 381.0 W/m2
15:10 75.6 °F /  24.2 °C 39.2 °F /  4 °C 30.17in /  1021.6hPa Calm   7.0mph /  11.3km/h 27% 0.00in /  0mm 364.0 W/m2
15:23 75.4 °F /  24.1 °C 40.1 °F /  4.5 °C 30.16in /  1021.2hPa Calm   5.0mph /  8km/h 28% 0.00in /  0mm 322.0 W/m2
15:29 75.2 °F /  24 °C 39.9 °F /  4.4 °C 30.16in /  1021.2hPa WNW 0.9mph /  1.4km/h 2.0mph /  3.2km/h 28% 0.00in /  0mm 49.0 W/m2
15:35 74.8 °F /  23.8 °C 39.6 °F /  4.2 °C 30.16in /  1021.2hPa Calm   5.0mph /  8km/h 28% 0.00in /  0mm 44.0 W/m2
15:41 74.7 °F /  23.7 °C 39.4 °F /  4.1 °C 30.16in /  1021.2hPa Calm   5.0mph /  8km/h 28% 0.00in /  0mm 42.0 W/m2
15:47 74.3 °F /  23.5 °C 39.0 °F /  3.9 °C 30.16in /  1021.2hPa North 2.9mph /  4.7km/h 8.0mph /  12.9km/h 28% 0.00in /  0mm 40.0 W/m2
15:53 73.9 °F /  23.3 °C 38.8 °F /  3.8 °C 30.16in /  1021.2hPa North 4.0mph /  6.4km/h 5.0mph /  8km/h 28% 0.00in /  0mm 37.0 W/m2
15:59 73.6 °F /  23.1 °C 38.5 °F /  3.6 °C 30.17in /  1021.6hPa NNW 2.0mph /  3.2km/h 6.0mph /  9.7km/h 28% 0.00in /  0mm 33.0 W/m2
16:05 73.2 °F /  22.9 °C 37.2 °F /  2.9 °C 30.17in /  1021.6hPa Calm   1.0mph /  1.6km/h 27% 0.00in /  0mm 28.0 W/m2
16:11 72.9 °F /  22.7 °C 38.7 °F /  3.7 °C 30.17in /  1021.6hPa NNW 0.9mph /  1.4km/h 4.0mph /  6.4km/h 29% 0.00in /  0mm 26.0 W/m2
16:17 72.7 °F /  22.6 °C 38.7 °F /  3.7 °C 30.17in /  1021.6hPa Calm   1.0mph /  1.6km/h 29% 0.00in /  0mm 25.0 W/m2
16:23 72.1 °F /  22.3 °C 38.1 °F /  3.4 °C 30.17in /  1021.6hPa Calm   2.0mph /  3.2km/h 29% 0.00in /  0mm 23.0 W/m2
16:29 72.0 °F /  22.2 °C 37.9 °F /  3.3 °C 30.17in /  1021.6hPa Calm   4.0mph /  6.4km/h 29% 0.00in /  0mm 21.0 W/m2
16:35 71.8 °F /  22.1 °C 37.8 °F /  3.2 °C 30.17in /  1021.6hPa NNW 0.9mph /  1.4km/h 2.0mph /  3.2km/h 29% 0.00in /  0mm 19.0 W/m2
16:41 71.4 °F /  21.9 °C 37.6 °F /  3.1 °C 30.17in /  1021.6hPa Calm     29% 0.00in /  0mm 18.0 W/m2
16:47 71.2 °F /  21.8 °C 39.0 °F /  3.9 °C 30.17in /  1021.6hPa NNW 0.9mph /  1.4km/h 1.0mph /  1.6km/h 31% 0.00in /  0mm 16.0 W/m2
16:53 70.9 °F /  21.6 °C 38.7 °F /  3.7 °C 30.17in /  1021.6hPa Calm   1.0mph /  1.6km/h 31% 0.00in /  0mm 14.0 W/m2
16:59 70.5 °F /  21.4 °C 38.5 °F /  3.6 °C 30.17in /  1021.6hPa NNW 2.9mph /  4.7km/h 3.0mph /  4.8km/h 31% 0.00in /  0mm 12.0 W/m2
17:05 70.2 °F /  21.2 °C 38.8 °F /  3.8 °C 30.18in /  1021.9hPa Calm   1.0mph /  1.6km/h 32% 0.00in /  0mm 9.0 W/m2
17:11 70.0 °F /  21.1 °C 38.8 °F /  3.8 °C 30.17in /  1021.6hPa Calm     32% 0.00in /  0mm 5.0 W/m2
17:17 69.4 °F /  20.8 °C 39.9 °F /  4.4 °C 30.18in /  1021.9hPa Calm     34% 0.00in /  0mm 0.0 W/m2
17:23 68.9 °F /  20.5 °C 40.1 °F /  4.5 °C 30.18in /  1021.9hPa Calm     35% 0.00in /  0mm 0.0 W/m2
17:29 68.2 °F /  20.1 °C 40.3 °F /  4.6 °C 30.18in /  1021.9hPa Calm     36% 0.00in /  0mm 0.0 W/m2
17:35 67.5 °F /  19.7 °C 39.6 °F /  4.2 °C 30.18in /  1021.9hPa Calm     36% 0.00in /  0mm 0.0 W/m2
17:41 66.7 °F /  19.3 °C 39.6 °F /  4.2 °C 30.18in /  1021.9hPa Calm     37% 0.00in /  0mm 0.0 W/m2
17:47 65.8 °F /  18.8 °C 39.6 °F /  4.2 °C 30.18in /  1021.9hPa Calm     38% 0.00in /  0mm 0.0 W/m2
17:53 65.1 °F /  18.4 °C 40.3 °F /  4.6 °C 30.19in /  1022.2hPa Calm     40% 0.00in /  0mm 0.0 W/m2
17:59 64.6 °F /  18.1 °C 39.7 °F /  4.3 °C 30.19in /  1022.2hPa Calm     40% 0.00in /  0mm 0.0 W/m2
18:05 63.7 °F /  17.6 °C 39.6 °F /  4.2 °C 30.19in /  1022.2hPa Calm   1.0mph /  1.6km/h 41% 0.00in /  0mm 0.0 W/m2
18:11 63.0 °F /  17.2 °C 39.6 °F /  4.2 °C 30.19in /  1022.2hPa Calm     42% 0.00in /  0mm 0.0 W/m2
18:17 62.4 °F /  16.9 °C 39.6 °F /  4.2 °C 30.19in /  1022.2hPa Calm     43% 0.00in /  0mm 0.0 W/m2
18:23 61.9 °F /  16.6 °C 39.7 °F /  4.3 °C 30.20in /  1022.6hPa Calm     44% 0.00in /  0mm 0.0 W/m2
18:29 61.2 °F /  16.2 °C 39.7 °F /  4.3 °C 30.19in /  1022.2hPa Calm     45% 0.00in /  0mm 0.0 W/m2
18:35 60.6 °F /  15.9 °C 39.2 °F /  4 °C 30.20in /  1022.6hPa Calm     45% 0.00in /  0mm 0.0 W/m2
18:41 60.3 °F /  15.7 °C 38.8 °F /  3.8 °C 30.20in /  1022.6hPa Calm     45% 0.00in /  0mm 0.0 W/m2
18:47 59.7 °F /  15.4 °C 38.8 °F /  3.8 °C 30.20in /  1022.6hPa Calm     46% 0.00in /  0mm 0.0 W/m2
18:53 59.4 °F /  15.2 °C 39.2 °F /  4 °C 30.20in /  1022.6hPa Calm     47% 0.00in /  0mm 0.0 W/m2
18:59 58.8 °F /  14.9 °C 39.2 °F /  4 °C 30.21in /  1022.9hPa Calm     48% 0.00in /  0mm 0.0 W/m2
19:05 58.5 °F /  14.7 °C 38.3 °F /  3.5 °C 30.21in /  1022.9hPa Calm     47% 0.00in /  0mm 0.0 W/m2
19:11 58.1 °F /  14.5 °C 38.5 °F /  3.6 °C 30.21in /  1022.9hPa Calm     48% 0.00in /  0mm 0.0 W/m2
19:17 57.7 °F /  14.3 °C 38.1 °F /  3.4 °C 30.21in /  1022.9hPa Calm     48% 0.00in /  0mm 0.0 W/m2
19:23 57.6 °F /  14.2 °C 37.9 °F /  3.3 °C 30.21in /  1022.9hPa Calm     48% 0.00in /  0mm 0.0 W/m2
19:29 57.4 °F /  14.1 °C 38.3 °F /  3.5 °C 30.21in /  1022.9hPa Calm     49% 0.00in /  0mm 0.0 W/m2
19:35 57.0 °F /  13.9 °C 38.1 °F /  3.4 °C 30.21in /  1022.9hPa Calm     49% 0.00in /  0mm 0.0 W/m2
19:41 56.7 °F /  13.7 °C 37.8 °F /  3.2 °C 30.21in /  1022.9hPa Calm     49% 0.00in /  0mm 0.0 W/m2
19:47 56.7 °F /  13.7 °C 37.8 °F /  3.2 °C 30.22in /  1023.2hPa Calm   1.0mph /  1.6km/h 49% 0.00in /  0mm 0.0 W/m2
19:53 56.8 °F /  13.8 °C 37.9 °F /  3.3 °C 30.22in /  1023.2hPa Calm     49% 0.00in /  0mm 0.0 W/m2
19:59 56.7 °F /  13.7 °C 37.8 °F /  3.2 °C 30.22in /  1023.2hPa Calm   1.0mph /  1.6km/h 49% 0.00in /  0mm 0.0 W/m2
20:05 56.5 °F /  13.6 °C 37.6 °F /  3.1 °C 30.22in /  1023.2hPa Calm     49% 0.00in /  0mm 0.0 W/m2
20:11 56.3 °F /  13.5 °C 37.4 °F /  3 °C 30.22in /  1023.2hPa Calm     49% 0.00in /  0mm 0.0 W/m2
20:17 55.9 °F /  13.3 °C 37.0 °F /  2.8 °C 30.22in /  1023.2hPa Calm     49% 0.00in /  0mm 0.0 W/m2
20:23 55.8 °F /  13.2 °C 37.4 °F /  3 °C 30.23in /  1023.6hPa Calm     50% 0.00in /  0mm 0.0 W/m2
20:29 55.6 °F /  13.1 °C 37.2 °F /  2.9 °C 30.23in /  1023.6hPa ESE 0.9mph /  1.4km/h 2.0mph /  3.2km/h 50% 0.00in /  0mm 0.0 W/m2
20:35 55.6 °F /  13.1 °C 37.2 °F /  2.9 °C 30.23in /  1023.6hPa Calm     50% 0.00in /  0mm 0.0 W/m2
20:41 55.2 °F /  12.9 °C 36.9 °F /  2.7 °C 30.23in /  1023.6hPa Calm   1.0mph /  1.6km/h 50% 0.00in /  0mm 0.0 W/m2
20:47 55.2 °F /  12.9 °C 36.9 °F /  2.7 °C 30.24in /  1023.9hPa Calm     50% 0.00in /  0mm 0.0 W/m2
20:53 55.0 °F /  12.8 °C 37.2 °F /  2.9 °C 30.24in /  1023.9hPa Calm     51% 0.00in /  0mm 0.0 W/m2
20:59 54.9 °F /  12.7 °C 37.6 °F /  3.1 °C 30.24in /  1023.9hPa Calm   2.0mph /  3.2km/h 52% 0.00in /  0mm 0.0 W/m2
21:05 54.7 °F /  12.6 °C 36.9 °F /  2.7 °C 30.23in /  1023.6hPa Calm   1.0mph /  1.6km/h 51% 0.00in /  0mm 0.0 W/m2
21:11 54.7 °F /  12.6 °C 37.4 °F /  3 °C 30.23in /  1023.6hPa Calm   2.0mph /  3.2km/h 52% 0.00in /  0mm 0.0 W/m2
21:17 54.9 °F /  12.7 °C 37.6 °F /  3.1 °C 30.24in /  1023.9hPa Calm   1.0mph /  1.6km/h 52% 0.00in /  0mm 0.0 W/m2
21:23 54.9 °F /  12.7 °C 37.6 °F /  3.1 °C 30.24in /  1023.9hPa Calm   1.0mph /  1.6km/h 52% 0.00in /  0mm 0.0 W/m2
21:29 54.9 °F /  12.7 °C 37.0 °F /  2.8 °C 30.24in /  1023.9hPa Calm   1.0mph /  1.6km/h 51% 0.00in /  0mm 0.0 W/m2
21:35 54.9 °F /  12.7 °C 37.0 °F /  2.8 °C 30.24in /  1023.9hPa Calm   1.0mph /  1.6km/h 51% 0.00in /  0mm 0.0 W/m2
21:41 55.0 °F /  12.8 °C 36.7 °F /  2.6 °C 30.24in /  1023.9hPa Calm   1.0mph /  1.6km/h 50% 0.00in /  0mm 0.0 W/m2
21:47 55.2 °F /  12.9 °C 36.9 °F /  2.7 °C 30.24in /  1023.9hPa Calm   2.0mph /  3.2km/h 50% 0.00in /  0mm 0.0 W/m2
21:53 55.2 °F /  12.9 °C 36.9 °F /  2.7 °C 30.24in /  1023.9hPa Calm   2.0mph /  3.2km/h 50% 0.00in /  0mm 0.0 W/m2
21:59 55.2 °F /  12.9 °C 36.9 °F /  2.7 °C 30.24in /  1023.9hPa Calm   3.0mph /  4.8km/h 50% 0.00in /  0mm 0.0 W/m2
22:05 55.2 °F /  12.9 °C 36.9 °F /  2.7 °C 30.24in /  1023.9hPa Calm   2.0mph /  3.2km/h 50% 0.00in /  0mm 0.0 W/m2
22:11 55.0 °F /  12.8 °C 36.7 °F /  2.6 °C 30.24in /  1023.9hPa ENE 2.0mph /  3.2km/h 5.0mph /  8km/h 50% 0.00in /  0mm 0.0 W/m2
22:17 54.9 °F /  12.7 °C 37.0 °F /  2.8 °C 30.24in /  1023.9hPa Calm     51% 0.00in /  0mm 0.0 W/m2
22:23 54.7 °F /  12.6 °C 36.9 °F /  2.7 °C 30.24in /  1023.9hPa Calm   1.0mph /  1.6km/h 51% 0.00in /  0mm 0.0 W/m2
22:29 54.3 °F /  12.4 °C 37.0 °F /  2.8 °C 30.24in /  1023.9hPa ESE 2.0mph /  3.2km/h 2.0mph /  3.2km/h 52% 0.00in /  0mm 0.0 W/m2
22:35 54.1 °F /  12.3 °C 36.9 °F /  2.7 °C 30.24in /  1023.9hPa Calm   2.0mph /  3.2km/h 52% 0.00in /  0mm 0.0 W/m2
22:41 54.0 °F /  12.2 °C 36.7 °F /  2.6 °C 30.24in /  1023.9hPa East 0.9mph /  1.4km/h 3.0mph /  4.8km/h 52% 0.00in /  0mm 0.0 W/m2
22:47 53.8 °F /  12.1 °C 36.5 °F /  2.5 °C 30.24in /  1023.9hPa Calm   2.0mph /  3.2km/h 52% 0.00in /  0mm 0.0 W/m2
22:53 53.4 °F /  11.9 °C 36.3 °F /  2.4 °C 30.24in /  1023.9hPa Calm   2.0mph /  3.2km/h 52% 0.00in /  0mm 0.0 W/m2
22:59 53.2 °F /  11.8 °C 36.5 °F /  2.5 °C 30.24in /  1023.9hPa Calm     53% 0.00in /  0mm 0.0 W/m2
23:05 53.1 °F /  11.7 °C 36.3 °F /  2.4 °C 30.24in /  1023.9hPa Calm   1.0mph /  1.6km/h 53% 0.00in /  0mm 0.0 W/m2
23:11 52.9 °F /  11.6 °C 36.7 °F /  2.6 °C 30.24in /  1023.9hPa Calm   1.0mph /  1.6km/h 54% 0.00in /  0mm 0.0 W/m2
23:17 52.9 °F /  11.6 °C 36.7 °F /  2.6 °C 30.24in /  1023.9hPa Calm   1.0mph /  1.6km/h 54% 0.00in /  0mm 0.0 W/m2
23:23 52.5 °F /  11.4 °C 36.3 °F /  2.4 °C 30.24in /  1023.9hPa Calm   3.0mph /  4.8km/h 54% 0.00in /  0mm 0.0 W/m2
23:29 52.3 °F /  11.3 °C 36.1 °F /  2.3 °C 30.24in /  1023.9hPa Calm     54% 0.00in /  0mm 0.0 W/m2
23:35 52.2 °F /  11.2 °C 36.5 °F /  2.5 °C 30.24in /  1023.9hPa Calm   1.0mph /  1.6km/h 55% 0.00in /  0mm 0.0 W/m2
23:42 52.2 °F /  11.2 °C 36.5 °F /  2.5 °C 30.24in /  1023.9hPa Calm     55% 0.00in /  0mm 0.0 W/m2
23:48 52.0 °F /  11.1 °C 35.8 °F /  2.1 °C 30.23in /  1023.6hPa Calm   1.0mph /  1.6km/h 54% 0.00in /  0mm 0.0 W/m2
23:54 51.6 °F /  10.9 °C 36.0 °F /  2.2 °C 30.23in /  1023.6hPa Calm     55% 0.00in /  0mm 0.0 W/m2
Olympia, Windhoek, Namibia
Compliments of Weather Underground - 3 mb